createdAt,value
2023-03-03T00:03:21.855Z,43.92
2023-03-03T00:08:26.929Z,35.67
2023-03-03T00:13:29.981Z,33.17
2023-03-03T00:18:36.970Z,39.38
2023-03-03T00:28:47.179Z,30.75
2023-03-03T00:33:54.812Z,25.25
2023-03-03T00:39:13.122Z,26.02
2023-03-03T00:44:39.598Z,33.00
2023-03-03T00:49:43.880Z,23.58
2023-03-03T00:54:48.603Z,29.75
2023-03-03T00:59:52.489Z,28.30
2023-03-03T01:04:56.587Z,30.73
2023-03-03T01:10:00.861Z,29.23
2023-03-03T01:15:03.955Z,38.70
2023-03-03T01:20:07.901Z,29.58
2023-03-03T01:25:12.504Z,34.08
2023-03-03T01:30:16.640Z,34.03
2023-03-03T01:35:19.666Z,30.25
2023-03-03T01:40:26.899Z,30.08
2023-03-03T01:45:31.316Z,32.30
2023-03-03T01:50:42.727Z,30.27
2023-03-03T01:55:48.874Z,28.98
2023-03-03T02:00:56.077Z,27.17
2023-03-03T02:06:01.669Z,28.85
2023-03-03T02:11:07.614Z,29.30
2023-03-03T02:16:10.818Z,29.07
2023-03-03T02:21:17.452Z,29.63
2023-03-03T02:26:25.042Z,27.45
2023-03-03T02:31:34.064Z,32.45
2023-03-03T02:36:39.495Z,32.17
2023-03-03T02:41:49.022Z,40.33
2023-03-03T02:46:54.180Z,29.73
2023-03-03T02:51:57.105Z,27.67
2023-03-03T02:57:02.647Z,27.60
2023-03-03T03:02:06.145Z,38.67
2023-03-03T03:07:09.136Z,24.27
2023-03-03T03:12:16.037Z,30.38
2023-03-03T03:17:19.657Z,27.90
2023-03-03T03:22:23.331Z,35.00
2023-03-03T03:27:27.630Z,34.13
2023-03-03T03:32:31.241Z,30.25
2023-03-03T03:37:34.390Z,30.55
2023-03-03T03:42:40.584Z,30.08
2023-03-03T03:47:43.968Z,27.55
2023-03-03T03:52:47.703Z,28.98
2023-03-03T03:57:52.149Z,26.75
2023-03-03T04:02:55.983Z,33.95
2023-03-03T04:07:59.636Z,29.52
2023-03-03T04:13:04.833Z,27.50
2023-03-03T04:18:08.868Z,32.70
2023-03-03T04:23:11.960Z,33.05
2023-03-03T04:28:16.832Z,33.75
2023-03-03T04:33:20.597Z,33.85
2023-03-03T04:38:24.542Z,30.10
2023-03-03T04:43:29.614Z,38.20
2023-03-03T04:48:33.391Z,35.42
2023-03-03T04:53:36.648Z,39.25
2023-03-03T04:58:41.638Z,42.20
2023-03-03T05:03:44.823Z,39.75
2023-03-03T05:08:48.036Z,37.97
2023-03-03T05:13:52.206Z,39.95
2023-03-03T05:18:54.977Z,35.08
2023-03-03T05:23:57.791Z,38.97
2023-03-03T05:29:01.971Z,34.88
2023-03-03T05:34:06.020Z,43.13
2023-03-03T05:39:08.793Z,39.80
2023-03-03T05:44:12.972Z,49.63
2023-03-03T05:49:15.831Z,36.67
2023-03-03T05:54:18.729Z,33.25
2023-03-03T05:59:22.925Z,38.38
2023-03-03T06:04:25.854Z,30.10
2023-03-03T06:09:28.682Z,37.97
2023-03-03T06:14:33.234Z,41.80
2023-03-03T06:19:37.402Z,41.25
2023-03-03T06:24:40.258Z,37.67
2023-03-03T06:29:44.617Z,42.22
2023-03-03T06:34:47.484Z,46.75
2023-03-03T06:39:51.759Z,52.92
2023-03-03T06:44:56.112Z,49.17
2023-03-03T06:49:58.974Z,69.82
2023-03-03T06:55:13.704Z,46.08
2023-03-03T07:00:20.871Z,50.22
2023-03-03T07:05:29.372Z,44.95
2023-03-03T07:10:33.051Z,60.63
2023-03-03T07:15:38.059Z,60.25
2023-03-03T07:20:42.134Z,51.47
2023-03-03T07:25:47.133Z,47.10
2023-03-03T07:30:54.945Z,51.88
2023-03-03T07:36:00.185Z,50.13
2023-03-03T07:41:06.143Z,55.90
2023-03-03T07:46:27.896Z,46.15
2023-03-03T07:51:41.864Z,62.00
2023-03-03T07:56:45.611Z,88.03
2023-03-03T08:01:53.608Z,82.95
2023-03-03T08:07:00.045Z,84.15
2023-03-03T08:12:19.857Z,78.32
2023-03-03T08:17:28.082Z,76.53
2023-03-03T08:22:35.717Z,89.72
2023-03-03T08:27:38.740Z,76.13
2023-03-03T08:32:43.056Z,80.63
2023-03-03T08:37:47.151Z,90.50
2023-03-03T08:42:50.127Z,71.95
2023-03-03T08:47:54.723Z,75.75
2023-03-03T08:52:58.352Z,81.15
2023-03-03T08:58:01.263Z,69.55
2023-03-03T09:03:07.773Z,72.22
2023-03-03T09:08:10.787Z,77.73
2023-03-03T09:13:17.199Z,76.43
2023-03-03T09:18:23.391Z,74.67
2023-03-03T09:23:33.699Z,85.43
2023-03-03T09:28:38.163Z,75.13
2023-03-03T09:33:46.182Z,75.47
2023-03-03T09:38:49.669Z,74.90
2023-03-03T09:44:08.964Z,78.35
2023-03-03T09:49:26.496Z,77.90
2023-03-03T09:54:44.015Z,81.10
2023-03-03T10:00:16.359Z,69.53
2023-03-03T10:05:39.428Z,80.05
2023-03-03T10:10:50.069Z,77.93
2023-03-03T10:16:10.902Z,83.55
2023-03-03T10:21:21.893Z,73.35
2023-03-03T10:26:46.485Z,75.35
2023-03-03T10:32:20.939Z,68.53
2023-03-03T10:37:34.784Z,70.38
2023-03-03T10:43:01.867Z,64.22
2023-03-03T10:53:31.191Z,72.70
2023-03-03T10:58:47.972Z,58.75
2023-03-03T11:04:23.043Z,58.85
2023-03-03T11:09:42.034Z,63.38
2023-03-03T11:14:51.664Z,61.75
2023-03-03T11:20:04.899Z,58.75
2023-03-03T11:25:22.406Z,57.75
2023-03-03T11:30:35.764Z,63.65
2023-03-03T11:35:46.082Z,49.90
2023-03-03T11:40:56.447Z,57.25
2023-03-03T11:46:05.303Z,55.70
2023-03-03T11:51:12.889Z,58.33
2023-03-03T11:56:30.979Z,60.97
2023-03-03T12:01:43.308Z,57.97
2023-03-03T12:07:09.755Z,47.70
2023-03-03T12:12:25.269Z,46.72
2023-03-03T12:17:50.267Z,55.33
2023-03-03T12:23:07.304Z,53.65
2023-03-03T12:28:19.782Z,46.35
2023-03-03T12:33:33.325Z,46.25
2023-03-03T12:38:42.696Z,45.33
2023-03-03T12:43:59.384Z,46.08
2023-03-03T12:49:03.018Z,36.92
2023-03-03T12:54:20.353Z,43.10
2023-03-03T12:59:33.966Z,40.78
2023-03-03T13:04:43.921Z,37.88
2023-03-03T13:10:04.215Z,39.47
2023-03-03T13:15:17.234Z,42.08
2023-03-03T13:20:33.968Z,42.88
2023-03-03T13:25:52.467Z,42.83
2023-03-03T13:31:03.819Z,42.22
2023-03-03T13:36:13.162Z,41.97
2023-03-03T13:41:22.274Z,44.03
2023-03-03T13:46:41.206Z,47.75
2023-03-03T13:51:52.071Z,42.13
2023-03-03T13:57:31.583Z,47.40
2023-03-03T14:02:53.813Z,54.95
2023-03-03T14:08:01.918Z,50.22
2023-03-03T14:13:09.278Z,50.78
2023-03-03T14:18:25.760Z,50.35
2023-03-03T14:23:34.599Z,46.43
2023-03-03T14:28:46.276Z,50.42
2023-03-03T14:34:02.420Z,45.40
2023-03-03T14:39:29.526Z,47.97
2023-03-03T14:44:38.090Z,41.97
2023-03-03T14:49:42.509Z,44.13
2023-03-03T14:54:47.501Z,44.53
2023-03-03T14:59:58.541Z,44.33
2023-03-03T15:05:25.009Z,40.60
2023-03-03T15:10:34.342Z,42.65
2023-03-03T15:15:49.371Z,43.47
2023-03-03T15:21:00.550Z,38.47
2023-03-03T15:26:08.438Z,45.70
2023-03-03T15:31:27.068Z,47.63
2023-03-03T15:36:40.277Z,49.15
2023-03-03T15:41:46.138Z,40.35
2023-03-03T15:46:59.602Z,35.75
2023-03-03T15:52:22.668Z,52.22
2023-03-03T15:57:41.127Z,46.92
2023-03-03T16:02:51.495Z,43.70
2023-03-03T16:08:12.882Z,40.65
2023-03-03T16:13:24.508Z,38.40
2023-03-03T16:18:38.941Z,40.20
2023-03-03T16:23:49.530Z,42.90
2023-03-03T16:29:07.034Z,45.00
2023-03-03T16:34:16.710Z,48.60
2023-03-03T16:39:30.586Z,60.33
2023-03-03T16:44:44.520Z,48.15
2023-03-03T16:50:00.849Z,64.50
2023-03-03T16:55:13.663Z,55.13
2023-03-03T17:00:20.984Z,61.15
2023-03-03T17:15:45.709Z,72.38
2023-03-03T17:20:50.286Z,79.10
2023-03-03T17:26:03.392Z,88.53
2023-03-03T17:31:14.627Z,87.43
2023-03-03T17:36:33.827Z,78.63
2023-03-03T17:41:43.538Z,84.82
2023-03-03T17:46:53.804Z,85.18
2023-03-03T17:52:39.043Z,101.03
2023-03-03T17:57:59.054Z,103.88
2023-03-03T18:03:36.604Z,83.82
2023-03-03T18:08:50.841Z,94.00
2023-03-03T18:14:15.025Z,99.88
2023-03-03T18:19:36.527Z,105.50
2023-03-03T18:24:42.412Z,104.63
2023-03-03T18:30:36.046Z,108.80
2023-03-03T18:35:40.450Z,98.50
2023-03-03T18:40:51.712Z,101.20
2023-03-03T18:45:58.052Z,113.97
2023-03-03T18:51:01.190Z,120.67
2023-03-03T18:56:10.620Z,117.93
2023-03-03T19:01:43.984Z,126.65
2023-03-03T19:07:09.553Z,127.90
2023-03-03T19:12:13.811Z,131.95
2023-03-03T19:17:54.272Z,145.07
2023-03-03T19:23:06.646Z,144.77
2023-03-03T19:28:35.722Z,145.30
2023-03-03T19:33:52.978Z,130.07
2023-03-03T19:39:07.783Z,155.52
2023-03-03T19:44:22.900Z,158.10
2023-03-03T19:49:47.672Z,147.82
2023-03-03T19:55:17.610Z,136.77
2023-03-03T20:00:27.631Z,136.43
2023-03-03T20:05:40.857Z,148.68
2023-03-03T20:10:51.612Z,141.95
2023-03-03T20:16:01.445Z,151.00
2023-03-03T20:21:17.989Z,157.77
2023-03-03T20:26:27.257Z,162.50
2023-03-03T20:31:36.244Z,138.75
2023-03-03T20:36:50.166Z,151.20
2023-03-03T20:42:05.844Z,152.43
2023-03-03T20:47:19.253Z,153.93
2023-03-03T20:52:31.469Z,144.88
2023-03-03T20:57:46.959Z,158.05
2023-03-03T21:02:59.819Z,161.00
2023-03-03T21:08:07.984Z,159.50
2023-03-03T21:13:29.409Z,158.13
2023-03-03T21:18:34.100Z,161.30
2023-03-03T21:23:38.417Z,155.20
2023-03-03T21:29:03.208Z,162.65
2023-03-03T21:34:19.932Z,159.15
2023-03-03T21:39:28.036Z,158.52
2023-03-03T21:44:33.728Z,168.07
2023-03-03T21:49:37.923Z,158.70
2023-03-03T21:54:42.208Z,174.07
2023-03-03T21:59:45.152Z,152.73
2023-03-03T22:04:47.989Z,152.18
2023-03-03T22:09:52.173Z,168.55
2023-03-03T22:14:55.375Z,171.55
2023-03-03T22:19:58.145Z,149.50
2023-03-03T22:25:02.494Z,160.70
2023-03-03T22:30:06.197Z,145.00
2023-03-03T22:35:12.001Z,166.50
2023-03-03T22:40:17.131Z,162.80
2023-03-03T22:45:20.107Z,163.68
2023-03-03T22:50:22.991Z,170.98
2023-03-03T22:55:27.329Z,165.77
2023-03-03T23:00:30.417Z,141.30
2023-03-03T23:05:33.947Z,145.20
2023-03-03T23:10:38.914Z,159.02
2023-03-03T23:15:42.825Z,166.85
2023-03-03T23:20:45.821Z,142.68
2023-03-03T23:25:50.135Z,150.45
2023-03-03T23:30:52.848Z,146.27
2023-03-03T23:35:55.789Z,145.15
2023-03-03T23:40:59.917Z,165.90
2023-03-03T23:46:02.758Z,162.05
2023-03-03T23:51:05.853Z,157.10
2023-03-03T23:56:10.811Z,169.05
